Time;durP1;ratioP1;P1;durP2;ratioP2;P2;SDS_P1;SDS_P2;PMS_P1;PMS_P2;Temp;Humidity;BMP_temperature;BMP_pressure;BME280_temperature;BME280_humidity;BME280_pressure;Samples;Min_cycle;Max_cycle;Signal;HPM_P1;HPM_P2
2021/10/15 00:00:59;;;;;;;9.02;5.05;;;;;;;8.70;87.85;98414.81;4991828;28;20082;-61
2021/10/15 00:03:25;;;;;;;9.18;4.53;;;;;;;8.89;88.22;98415.16;4991409;28;20057;-59
2021/10/15 00:05:50;;;;;;;12.32;7.22;;;;;;;8.35;89.26;98418.31;4991876;28;20595;-60
2021/10/15 00:08:15;;;;;;;11.65;6.93;;;;;;;8.26;89.84;98420.22;4988859;28;20034;-59
2021/10/15 00:10:41;;;;;;;13.07;6.60;;;;;;;8.25;89.37;98413.34;4988827;28;20042;-59
2021/10/15 00:13:06;;;;;;;9.15;5.60;;;;;;;8.35;88.47;98407.91;4991771;28;20060;-61
2021/10/15 00:15:31;;;;;;;9.23;5.45;;;;;;;8.53;87.81;98412.66;4991024;28;20040;-61
2021/10/15 00:17:56;;;;;;;9.95;5.35;;;;;;;8.64;87.37;98408.03;4990917;28;20034;-61
2021/10/15 00:20:22;;;;;;;15.40;7.78;;;;;;;8.61;86.52;98402.91;4988471;28;20110;-58
2021/10/15 00:22:47;;;;;;;9.77;4.68;;;;;;;8.81;87.31;98401.53;4991186;28;20026;-58
2021/10/15 00:25:13;;;;;;;13.80;7.00;;;;;;;8.44;87.73;98397.31;4992248;28;20029;-60
2021/10/15 00:27:38;;;;;;;10.20;4.80;;;;;;;8.41;89.78;98392.16;4973807;28;20371;-60
2021/10/15 00:30:04;;;;;;;12.85;6.30;;;;;;;8.20;89.12;98394.41;4989451;28;20038;-60
2021/10/15 00:32:29;;;;;;;12.52;6.80;;;;;;;8.26;87.88;98394.25;4989843;28;20141;-60
2021/10/15 00:34:55;;;;;;;11.32;6.05;;;;;;;7.96;91.70;98392.41;4991013;28;20104;-59
2021/10/15 00:37:20;;;;;;;15.63;8.32;;;;;;;7.79;91.37;98382.41;4988279;28;20069;-61
2021/10/15 00:39:46;;;;;;;13.80;6.43;;;;;;;8.21;88.62;98379.66;4991112;28;20021;-59
2021/10/15 00:42:11;;;;;;;14.90;7.90;;;;;;;7.74;89.75;98385.13;4989914;28;20553;-61
2021/10/15 00:44:38;;;;;;;13.07;6.90;;;;;;;7.63;91.03;98381.94;4991980;28;20026;-60
2021/10/15 00:47:03;;;;;;;18.73;7.93;;;;;;;7.55;90.34;98373.47;4990859;28;20057;-60
2021/10/15 00:49:29;;;;;;;13.07;6.50;;;;;;;7.69;90.75;98377.44;4990756;28;20416;-59
2021/10/15 00:51:54;;;;;;;21.27;9.07;;;;;;;7.25;93.39;98371.50;4989819;28;20041;-58
2021/10/15 00:54:20;;;;;;;18.52;7.40;;;;;;;7.09;93.25;98376.16;4993731;28;20030;-59
2021/10/15 00:56:45;;;;;;;11.73;6.32;;;;;;;7.49;91.11;98370.09;4988807;28;20048;-59
2021/10/15 00:59:12;;;;;;;13.90;7.38;;;;;;;7.47;92.05;98365.84;4991809;28;20014;-59
2021/10/15 01:01:37;;;;;;;33.00;6.55;;;;;;;7.79;89.77;98361.63;4992046;28;20042;-59
2021/10/15 01:04:03;;;;;;;16.30;7.03;;;;;;;7.26;92.12;98352.47;4992164;28;20037;-59
2021/10/15 01:06:31;;;;;;;21.40;6.50;;;;;;;7.70;89.99;98347.13;4989799;28;20132;-60
2021/10/15 01:08:57;;;;;;;7.78;4.53;;;;;;;7.90;89.71;98344.94;4990264;28;20022;-58
2021/10/15 01:11:23;;;;;;;11.20;4.40;;;;;;;7.68;88.52;98346.31;4989276;28;20041;-58
2021/10/15 01:13:48;;;;;;;23.42;7.38;;;;;;;7.33;91.11;98335.00;4990125;28;20369;-59
2021/10/15 01:16:15;;;;;;;90.85;10.20;;;;;;;6.97;93.42;98340.13;4992922;28;20031;-60
2021/10/15 01:18:42;;;;;;;33.40;6.65;;;;;;;7.33;90.99;98332.41;4989900;28;20033;-57
2021/10/15 01:21:10;;;;;;;25.83;6.28;;;;;;;7.36;90.68;98327.16;4987521;28;20034;-59
2021/10/15 01:23:36;;;;;;;53.20;7.35;;;;;;;7.18;90.77;98319.78;4989189;28;20044;-58
2021/10/15 01:26:02;;;;;;;47.95;7.63;;;;;;;6.86;92.92;98321.34;4990893;28;20046;-58
2021/10/15 01:28:29;;;;;;;73.75;9.00;;;;;;;6.59;93.78;98328.78;4992963;28;20515;-60
2021/10/15 01:30:55;;;;;;;40.92;6.53;;;;;;;7.10;90.90;98315.63;4990447;28;20084;-60
2021/10/15 01:33:20;;;;;;;38.35;7.00;;;;;;;7.10;89.18;98319.97;4990364;28;20033;-60
2021/10/15 01:35:46;;;;;;;129.70;9.30;;;;;;;6.55;92.05;98316.78;4991113;28;20042;-58
2021/10/15 01:38:12;;;;;;;40.22;7.70;;;;;;;6.56;91.23;98326.25;4989009;28;20026;-59
2021/10/15 01:40:39;;;;;;;29.83;7.38;;;;;;;6.44;93.54;98311.78;4989099;28;20048;-59
2021/10/15 01:43:04;;;;;;;36.35;7.22;;;;;;;6.56;92.26;98315.88;4990345;28;20591;-60
2021/10/15 01:45:31;;;;;;;11.07;6.45;;;;;;;6.66;92.24;98312.22;4990542;28;20046;-59
2021/10/15 01:47:57;;;;;;;66.45;8.05;;;;;;;6.71;91.09;98317.34;4991204;28;20137;-61
2021/10/15 01:50:24;;;;;;;13.88;5.50;;;;;;;6.98;89.22;98308.09;4988484;28;20144;-58
2021/10/15 01:52:50;;;;;;;10.43;5.82;;;;;;;6.78;90.29;98302.47;4987288;28;20038;-58
2021/10/15 01:55:16;;;;;;;22.60;7.40;;;;;;;6.58;90.64;98303.75;4990060;28;20026;-61
2021/10/15 01:57:41;;;;;;;21.23;7.20;;;;;;;6.48;92.14;98304.81;4989138;28;20058;-61
2021/10/15 02:00:09;;;;;;;39.08;7.60;;;;;;;6.25;92.95;98303.53;4988089;28;20026;-58
2021/10/15 02:02:34;;;;;;;9.85;5.10;;;;;;;6.52;91.05;98304.72;4986123;28;20378;-61
2021/10/15 02:05:00;;;;;;;19.23;6.65;;;;;;;6.47;90.69;98287.53;4992210;28;20034;-61
2021/10/15 02:07:25;;;;;;;27.17;7.43;;;;;;;5.98;93.41;98290.19;4988012;28;20587;-60
2021/10/15 02:09:51;;;;;;;16.10;6.93;;;;;;;6.36;91.65;98285.19;4989280;28;20023;-62
2021/10/15 02:12:16;;;;;;;28.33;6.93;;;;;;;5.92;93.81;98282.50;4988445;28;20042;-61
2021/10/15 02:14:42;;;;;;;10.30;6.50;;;;;;;6.12;92.83;98270.94;4989184;28;20056;-60
2021/10/15 02:17:07;;;;;;;8.95;5.80;;;;;;;6.50;91.90;98271.94;4989256;28;20040;-59
2021/10/15 02:19:33;;;;;;;10.60;5.22;;;;;;;6.67;89.26;98275.06;4987623;28;20057;-62
2021/10/15 02:21:58;;;;;;;6.80;4.63;;;;;;;6.83;88.12;98260.00;4989831;28;20300;-60
2021/10/15 02:24:24;;;;;;;14.27;6.60;;;;;;;6.34;91.30;98263.63;4987931;28;20563;-60
2021/10/15 02:26:52;;;;;;;9.50;5.70;;;;;;;6.51;91.03;98258.13;4988352;28;20347;-60
2021/10/15 02:29:18;;;;;;;15.48;7.53;;;;;;;6.37;90.30;98256.63;4987932;28;20113;-58
2021/10/15 02:31:44;;;;;;;11.93;6.85;;;;;;;6.17;91.63;98258.78;4992186;28;20121;-59
2021/10/15 02:34:10;;;;;;;19.80;6.72;;;;;;;5.97;93.52;98246.19;4990384;28;20095;-58
2021/10/15 02:36:35;;;;;;;12.40;4.78;;;;;;;6.33;92.71;98248.97;4986989;28;20055;-61
2021/10/15 02:39:00;;;;;;;13.18;6.60;;;;;;;6.40;90.40;98249.72;4991052;28;20030;-60
2021/10/15 02:41:26;;;;;;;27.10;7.47;;;;;;;6.07;91.77;98239.13;4989525;28;20062;-59
2021/10/15 02:43:51;;;;;;;18.15;6.35;;;;;;;6.08;92.42;98240.81;4988081;28;20711;-58
2021/10/15 02:46:17;;;;;;;10.20;4.68;;;;;;;6.63;90.46;98236.25;4990342;28;20435;-57
2021/10/15 02:48:43;;;;;;;10.48;6.18;;;;;;;6.54;90.00;98239.91;4990261;28;20097;-59
2021/10/15 02:51:10;;;;;;;15.57;6.07;;;;;;;5.79;93.53;98237.03;4990570;28;20030;-59
2021/10/15 02:53:36;;;;;;;12.18;5.57;;;;;;;6.38;90.34;98231.59;4992076;28;20032;-59
2021/10/15 02:56:02;;;;;;;26.45;6.50;;;;;;;6.06;91.58;98233.06;4989048;28;20042;-57
2021/10/15 02:58:27;;;;;;;26.48;6.22;;;;;;;6.15;90.86;98229.47;4987812;28;20026;-59
2021/10/15 03:00:52;;;;;;;8.38;4.55;;;;;;;6.60;89.37;98226.81;4987595;28;20046;-60
2021/10/15 03:03:18;;;;;;;23.95;7.20;;;;;;;5.85;92.30;98226.53;4990707;28;20112;-60
2021/10/15 03:05:43;;;;;;;9.18;6.00;;;;;;;6.05;92.72;98226.19;4993120;28;20057;-59
2021/10/15 03:08:09;;;;;;;21.17;6.63;;;;;;;6.24;90.16;98229.28;4990942;28;20363;-60
2021/10/15 03:10:35;;;;;;;12.98;6.45;;;;;;;6.06;90.79;98219.28;4988420;28;20030;-59
2021/10/15 03:13:01;;;;;;;11.60;6.45;;;;;;;6.31;89.64;98225.69;4987648;28;20030;-60
2021/10/15 03:15:26;;;;;;;12.88;6.40;;;;;;;6.23;89.13;98218.94;4989548;28;20065;-58
2021/10/15 03:17:52;;;;;;;17.63;6.75;;;;;;;5.83;92.79;98217.09;4990131;28;20194;-57
2021/10/15 03:20:17;;;;;;;11.60;6.35;;;;;;;6.11;90.46;98217.47;4989035;28;20026;-59
2021/10/15 03:22:42;;;;;;;10.98;5.88;;;;;;;6.14;91.27;98220.00;4989926;28;20855;-60
2021/10/15 03:25:08;;;;;;;10.93;5.95;;;;;;;6.24;89.74;98225.84;4987400;28;20096;-58
2021/10/15 03:27:33;;;;;;;16.77;6.82;;;;;;;5.86;91.57;98217.88;4986608;28;20011;-61
2021/10/15 03:29:59;;;;;;;11.27;6.15;;;;;;;6.18;90.20;98213.88;4990759;28;20018;-59
2021/10/15 03:32:24;;;;;;;10.05;5.30;;;;;;;5.89;90.93;98217.84;4987996;28;20537;-58
2021/10/15 03:34:49;;;;;;;8.30;4.65;;;;;;;6.24;90.22;98225.84;4987645;28;20030;-60
2021/10/15 03:37:15;;;;;;;12.43;6.22;;;;;;;6.10;89.20;98215.75;4989400;28;20038;-60
2021/10/15 03:39:40;;;;;;;24.92;7.75;;;;;;;5.65;92.19;98220.88;4988375;28;20025;-60
2021/10/15 03:42:06;;;;;;;20.35;6.45;;;;;;;5.96;90.22;98216.88;4989707;28;20064;-59
2021/10/15 03:44:31;;;;;;;50.08;7.47;;;;;;;5.74;91.38;98223.31;4989540;28;20122;-61
2021/10/15 03:46:56;;;;;;;31.60;6.90;;;;;;;5.70;91.53;98212.16;4988988;28;20030;-59
2021/10/15 03:49:22;;;;;;;15.65;5.72;;;;;;;5.84;91.32;98206.69;4990566;28;20033;-59
2021/10/15 03:51:47;;;;;;;28.05;6.95;;;;;;;6.23;89.01;98206.88;4988620;28;20108;-58
2021/10/15 03:54:12;;;;;;;60.78;8.48;;;;;;;5.88;90.30;98213.56;4989245;28;20037;-59
2021/10/15 03:56:38;;;;;;;10.10;4.78;;;;;;;6.22;89.54;98212.91;4989616;28;20161;-59
2021/10/15 03:59:03;;;;;;;14.45;6.43;;;;;;;6.29;87.91;98211.91;4989334;28;20029;-58
2021/10/15 04:01:29;;;;;;;7.82;4.70;;;;;;;6.39;87.75;98212.56;4988608;28;20046;-59
2021/10/15 04:03:54;;;;;;;24.15;5.72;;;;;;;6.07;88.54;98200.28;4990251;28;20109;-60
2021/10/15 04:06:19;;;;;;;7.57;4.45;;;;;;;6.09;90.33;98208.88;4988326;28;20038;-58
2021/10/15 04:08:45;;;;;;;20.73;5.20;;;;;;;5.95;89.47;98202.19;4988547;28;20038;-58
2021/10/15 04:11:10;;;;;;;10.35;4.40;;;;;;;5.98;89.98;98202.16;4986426;28;20083;-58
2021/10/15 04:13:36;;;;;;;135.88;8.90;;;;;;;5.45;91.58;98206.53;4986719;28;20032;-58
2021/10/15 04:16:01;;;;;;;29.20;6.22;;;;;;;5.65;91.93;98207.94;4988068;28;20176;-60
2021/10/15 04:18:28;;;;;;;70.72;6.35;;;;;;;5.49;91.15;98205.59;4989254;28;20053;-59
2021/10/15 04:20:54;;;;;;;84.60;6.97;;;;;;;5.27;91.96;98199.94;4988265;28;20038;-60
2021/10/15 04:23:20;;;;;;;51.28;5.95;;;;;;;5.74;89.65;98198.25;4987913;28;20030;-59
2021/10/15 04:25:45;;;;;;;39.83;5.95;;;;;;;5.83;89.23;98197.25;4990054;28;20520;-60
2021/10/15 04:28:10;;;;;;;12.05;4.25;;;;;;;5.80;89.60;98197.28;4989596;28;20444;-61
2021/10/15 04:30:36;;;;;;;53.65;7.00;;;;;;;5.76;88.98;98193.06;4988831;28;20069;-59
2021/10/15 04:33:01;;;;;;;16.75;5.05;;;;;;;5.91;88.30;98187.59;4992703;28;20030;-60
2021/10/15 04:35:27;;;;;;;63.95;6.40;;;;;;;5.44;89.57;98184.16;4989483;28;20046;-59
2021/10/15 04:37:52;;;;;;;9.02;4.75;;;;;;;5.92;88.21;98178.94;4989465;28;20044;-56
2021/10/15 04:40:17;;;;;;;8.05;4.43;;;;;;;5.64;91.44;98182.94;4990136;28;20033;-59
2021/10/15 04:42:43;;;;;;;8.27;4.32;;;;;;;5.66;88.88;98173.41;4989258;28;20026;-61
2021/10/15 04:45:09;;;;;;;16.75;4.18;;;;;;;5.84;87.10;98167.88;4993174;28;20022;-59
2021/10/15 04:47:35;;;;;;;21.73;6.20;;;;;;;5.58;89.32;98166.63;4990410;28;20037;-58
2021/10/15 04:50:01;;;;;;;67.72;7.88;;;;;;;5.22;89.88;98166.41;4988841;28;20396;-60
2021/10/15 04:52:26;;;;;;;6.22;3.83;;;;;;;5.63;90.49;98169.13;4989720;28;20038;-58
2021/10/15 04:54:51;;;;;;;62.85;7.00;;;;;;;5.27;88.71;98170.63;4990740;28;20037;-58
2021/10/15 04:57:17;;;;;;;44.45;7.05;;;;;;;5.50;87.91;98168.50;4986674;28;20038;-59
2021/10/15 04:59:42;;;;;;;19.00;6.38;;;;;;;5.29;89.38;98164.56;4989217;28;20050;-58
2021/10/15 05:02:07;;;;;;;15.40;5.72;;;;;;;5.25;89.47;98162.06;4987285;28;20130;-59
2021/10/15 05:04:33;;;;;;;11.02;5.97;;;;;;;5.32;90.16;98153.31;4994665;28;20026;-58
2021/10/15 05:06:59;;;;;;;22.38;5.13;;;;;;;5.49;87.25;98150.44;4995025;28;20042;-59
2021/10/15 05:09:35;;;;;;;14.02;7.03;;;;;;;5.64;87.66;98144.09;4992553;28;20089;-59
2021/10/15 05:12:03;;;;;;;14.40;6.63;;;;;;;5.31;88.72;98143.84;4992917;28;20065;-58
2021/10/15 05:14:30;;;;;;;15.77;6.50;;;;;;;5.05;90.48;98155.47;4992985;28;20032;-60
2021/10/15 05:16:55;;;;;;;13.63;5.78;;;;;;;4.99;92.10;98147.81;4990850;28;20129;-59
2021/10/15 05:19:21;;;;;;;23.50;7.68;;;;;;;4.66;91.21;98142.31;4993183;28;20100;-60
2021/10/15 05:21:46;;;;;;;10.10;5.32;;;;;;;5.25;88.25;98147.38;4994589;28;20124;-61
2021/10/15 05:24:11;;;;;;;18.10;6.90;;;;;;;4.88;89.61;98136.81;4992654;28;20109;-59
2021/10/15 05:26:37;;;;;;;33.83;7.80;;;;;;;5.06;89.52;98141.69;4993515;28;20527;-59
2021/10/15 05:29:02;;;;;;;12.95;6.80;;;;;;;4.65;91.34;98145.78;4992544;28;20031;-59
2021/10/15 05:31:28;;;;;;;11.48;5.93;;;;;;;4.98;89.30;98148.69;4991642;28;20038;-60
2021/10/15 05:33:54;;;;;;;42.53;6.90;;;;;;;4.51;92.63;98142.53;4974401;28;20113;-59
2021/10/15 05:36:19;;;;;;;13.80;6.43;;;;;;;4.93;89.64;98145.34;4993692;28;20092;-58
2021/10/15 05:38:45;;;;;;;51.38;8.13;;;;;;;4.60;90.99;98152.75;4994138;28;20487;-60
2021/10/15 05:41:10;;;;;;;21.95;7.55;;;;;;;4.93;89.69;98148.78;4994258;28;20073;-60
2021/10/15 05:43:35;;;;;;;25.77;7.30;;;;;;;4.87;90.65;98156.66;4992711;28;20041;-60
2021/10/15 05:46:02;;;;;;;26.67;7.88;;;;;;;5.02;89.32;98152.97;4991445;28;20040;-59
2021/10/15 05:48:27;;;;;;;22.65;7.50;;;;;;;5.05;88.97;98154.63;4991807;28;20026;-61
2021/10/15 05:50:53;;;;;;;19.88;6.20;;;;;;;4.81;90.08;98156.72;4993288;28;20056;-59
2021/10/15 05:53:21;;;;;;;29.00;7.55;;;;;;;4.51;91.85;98158.03;4990999;28;20112;-60
2021/10/15 05:58:49;;;;;;;16.65;7.00;;;;;;;5.00;91.81;98152.13;4994228;28;20177;-61
2021/10/15 06:01:15;;;;;;;13.90;7.00;;;;;;;4.91;92.77;98157.44;4991537;28;20042;-59
2021/10/15 06:03:43;;;;;;;12.82;7.00;;;;;;;5.08;90.65;98155.44;4991972;28;20027;-59
2021/10/15 06:14:31;;;;;;;15.45;7.47;;;;;;;5.54;91.05;98152.03;4992455;28;20593;-56
2021/10/15 06:17:17;;;;;;;12.35;7.10;;;;;;;5.78;92.09;98148.13;4989856;28;20105;-59
2021/10/15 06:19:46;;;;;;;16.00;7.30;;;;;;;5.96;90.98;98149.56;4989856;28;20030;-58
2021/10/15 06:22:12;;;;;;;14.93;7.13;;;;;;;5.88;90.54;98148.84;4992625;28;20030;-58
2021/10/15 06:24:37;;;;;;;18.75;7.63;;;;;;;6.52;92.21;98153.56;4991290;28;20033;-59
2021/10/15 06:27:03;;;;;;;116.95;12.48;;;;;;;6.78;89.93;98141.75;4990714;28;20035;-58
2021/10/15 06:29:28;;;;;;;123.07;12.90;;;;;;;7.43;93.37;98147.06;4990103;28;20026;-59
2021/10/15 06:31:54;;;;;;;16.00;7.40;;;;;;;6.98;87.70;98151.66;4989611;28;20153;-58
2021/10/15 06:34:19;;;;;;;15.45;7.60;;;;;;;7.02;89.74;98146.38;4992035;28;20115;-59
2021/10/15 06:36:45;;;;;;;11.90;6.90;;;;;;;6.99;86.94;98141.25;4990374;28;20125;-59
2021/10/15 06:39:11;;;;;;;11.73;6.90;;;;;;;6.92;89.18;98150.91;4991213;28;20213;-60
2021/10/15 06:41:36;;;;;;;14.40;7.40;;;;;;;6.49;88.06;98136.34;4990875;28;20042;-59
2021/10/15 06:44:02;;;;;;;11.55;6.93;;;;;;;6.60;90.13;98143.00;4989806;28;20030;-59
2021/10/15 06:46:27;;;;;;;11.93;6.40;;;;;;;6.53;88.12;98142.31;4992466;28;20039;-58
2021/10/15 06:48:53;;;;;;;10.63;6.70;;;;;;;7.39;90.83;98144.56;4987968;28;20022;-58
2021/10/15 06:51:18;;;;;;;14.05;7.63;;;;;;;7.60;86.38;98148.34;4992204;28;20430;-60
2021/10/15 06:53:45;;;;;;;12.10;6.40;;;;;;;6.69;87.91;98148.88;4989445;28;20507;-58
2021/10/15 06:56:10;;;;;;;13.45;6.82;;;;;;;7.22;88.17;98152.78;4988942;28;20062;-59
2021/10/15 06:58:36;;;;;;;11.85;6.80;;;;;;;7.47;91.21;98145.22;4991114;28;20141;-58
2021/10/15 07:01:02;;;;;;;13.25;6.93;;;;;;;7.58;90.02;98152.75;4991472;28;20034;-60
2021/10/15 07:03:28;;;;;;;10.88;6.75;;;;;;;7.59;90.33;98146.63;4994096;28;20911;-58
2021/10/15 07:05:53;;;;;;;12.30;7.15;;;;;;;8.05;89.21;98150.56;4991854;28;20034;-62
2021/10/15 07:08:18;;;;;;;65.05;10.10;;;;;;;8.43;91.79;98156.44;4990698;28;20037;-59
2021/10/15 07:10:44;;;;;;;936.25;58.53;;;;;;;11.11;96.81;98152.28;4989265;28;20050;-59
2021/10/15 07:13:13;;;;;;;1697.28;78.90;;;;;;;12.58;92.61;98150.25;4992829;28;20026;-61
2021/10/15 07:15:38;;;;;;;181.68;16.27;;;;;;;15.73;91.94;98145.91;4991099;28;20574;-60
2021/10/15 07:18:04;;;;;;;17.58;8.52;;;;;;;16.66;83.26;98143.72;4990577;28;20037;-60
2021/10/15 07:20:30;;;;;;;11.88;7.20;;;;;;;17.14;72.09;98141.53;4989503;28;20053;-61
2021/10/15 07:22:55;;;;;;;9.13;6.03;;;;;;;17.83;68.87;98138.69;4991348;28;20034;-60
2021/10/15 07:25:22;;;;;;;11.80;5.47;;;;;;;18.82;61.16;98147.69;4989172;28;20026;-62
2021/10/15 07:27:47;;;;;;;7.47;4.90;;;;;;;19.29;56.93;98140.72;4989737;28;20463;-60
2021/10/15 07:30:13;;;;;;;6.78;4.80;;;;;;;21.24;50.63;98129.91;4993192;28;20973;-62
2021/10/15 07:32:38;;;;;;;9.07;4.85;;;;;;;21.26;50.85;98133.28;4981818;28;20820;-62
2021/10/15 07:35:04;;;;;;;8.00;5.20;;;;;;;22.22;47.42;98127.91;4990924;28;20490;-60
2021/10/15 07:37:30;;;;;;;8.88;5.32;;;;;;;22.07;47.39;98138.03;4989934;28;20029;-61
2021/10/15 07:39:55;;;;;;;7.53;5.40;;;;;;;22.56;46.67;98131.13;4988666;28;20049;-59
2021/10/15 07:42:21;;;;;;;8.43;4.95;;;;;;;22.09;47.20;98128.97;4990377;28;20035;-60
2021/10/15 07:44:46;;;;;;;9.40;5.47;;;;;;;21.16;46.74;98135.03;4989116;28;20030;-58
2021/10/15 07:47:12;;;;;;;10.05;5.20;;;;;;;21.64;47.65;98133.75;4989983;28;20077;-59
2021/10/15 07:49:38;;;;;;;7.55;4.97;;;;;;;21.16;48.93;98135.03;4990386;28;20053;-60
2021/10/15 07:52:05;;;;;;;6.88;4.70;;;;;;;20.03;50.32;98137.78;4989358;28;20038;-59
2021/10/15 07:54:30;;;;;;;8.80;5.00;;;;;;;18.42;53.36;98145.25;4991296;28;20085;-59
2021/10/15 07:56:56;;;;;;;11.40;5.38;;;;;;;17.50;55.84;98142.69;4990097;28;20046;-60
2021/10/15 07:59:22;;;;;;;7.35;4.95;;;;;;;17.61;57.24;98143.72;4993283;28;20026;-62
2021/10/15 08:01:47;;;;;;;7.60;5.10;;;;;;;17.02;59.66;98147.59;4992789;28;20041;-60
2021/10/15 08:04:15;;;;;;;8.25;5.13;;;;;;;16.93;60.08;98142.94;4996959;28;20026;-61
2021/10/15 08:06:40;;;;;;;9.05;4.63;;;;;;;17.20;58.58;98145.53;4993573;28;20042;-60
2021/10/15 08:09:06;;;;;;;7.75;4.20;;;;;;;16.44;60.71;98143.38;4993843;28;20041;-63
2021/10/15 08:11:31;;;;;;;6.57;4.63;;;;;;;16.31;61.26;98145.94;4994399;28;20046;-65
2021/10/15 08:13:56;;;;;;;8.63;5.00;;;;;;;16.36;60.72;98147.34;4993993;28;20077;-63
2021/10/15 08:16:23;;;;;;;10.05;5.03;;;;;;;16.85;59.66;98142.56;4995275;28;20129;-62
2021/10/15 08:18:49;;;;;;;7.15;5.30;;;;;;;18.48;55.97;98143.00;4991240;28;20057;-62
2021/10/15 08:21:15;;;;;;;8.20;4.72;;;;;;;19.23;52.76;98151.75;4994434;28;20042;-62
2021/10/15 08:23:43;;;;;;;8.02;4.63;;;;;;;20.88;49.99;98142.59;4993727;28;20301;-62
2021/10/15 08:26:08;;;;;;;6.97;4.50;;;;;;;20.54;49.21;98144.41;4989828;28;20494;-62
2021/10/15 08:28:34;;;;;;;6.28;4.03;;;;;;;19.28;51.99;98152.25;4995413;28;20064;-62
2021/10/15 08:31:00;;;;;;;7.47;4.20;;;;;;;17.56;53.76;98156.41;4993580;28;20034;-62
2021/10/15 08:33:26;;;;;;;5.13;3.55;;;;;;;17.46;55.27;98158.78;4995340;28;20626;-61
2021/10/15 08:35:51;;;;;;;6.75;3.28;;;;;;;16.51;57.25;98152.59;4992723;28;20057;-63
2021/10/15 08:38:17;;;;;;;6.75;3.65;;;;;;;16.89;58.14;98151.97;4992916;28;20099;-62
2021/10/15 08:40:45;;;;;;;6.35;3.25;;;;;;;17.26;54.98;98146.94;4992885;28;20057;-62
2021/10/15 08:43:10;;;;;;;4.95;3.13;;;;;;;17.48;54.64;98147.22;4993709;28;20580;-62
2021/10/15 08:45:36;;;;;;;7.70;3.53;;;;;;;18.01;54.43;98149.81;4992856;28;20657;-64
2021/10/15 08:48:02;;;;;;;5.00;3.22;;;;;;;19.07;50.80;98147.56;4993209;28;20088;-62
2021/10/15 08:50:27;;;;;;;5.50;3.17;;;;;;;17.79;53.77;98147.78;4990660;28;20100;-63
2021/10/15 08:52:53;;;;;;;6.70;3.45;;;;;;;18.41;52.46;98135.63;4993092;28;20033;-64
2021/10/15 08:55:19;;;;;;;6.85;3.20;;;;;;;19.17;51.21;98134.53;4991595;28;20597;-62
2021/10/15 08:57:49;;;;;;;4.85;3.05;;;;;;;18.04;52.32;98135.56;4991275;28;20400;-65
2021/10/15 09:00:20;;;;;;;4.38;3.20;;;;;;;19.49;51.05;98131.28;4993640;28;20025;-62
2021/10/15 09:03:07;;;;;;;4.75;3.08;;;;;;;19.74;52.25;98135.59;4991279;28;20018;-61
2021/10/15 09:05:32;;;;;;;6.22;3.17;;;;;;;19.12;50.98;98127.91;4993574;28;20574;-62
2021/10/15 09:07:57;;;;;;;7.03;3.38;;;;;;;18.90;50.13;98120.72;4992535;28;20030;-61
2021/10/15 09:10:30;;;;;;;4.45;3.10;;;;;;;18.54;52.64;98123.22;4993010;28;20066;-62
2021/10/15 09:12:58;;;;;;;6.03;2.70;;;;;;;19.30;50.54;98117.75;5007912;28;20114;-62
2021/10/15 09:15:34;;;;;;;5.22;3.00;;;;;;;20.14;49.63;98110.47;4992068;28;20034;-61
2021/10/15 09:18:10;;;;;;;6.07;2.97;;;;;;;21.40;46.80;98107.44;4993328;28;20069;-61
2021/10/15 09:20:36;;;;;;;4.75;2.95;;;;;;;21.36;45.89;98105.03;4990695;28;20575;-60
2021/10/15 09:23:02;;;;;;;4.00;2.70;;;;;;;20.59;48.37;98110.44;4989689;28;20034;-62
2021/10/15 09:25:35;;;;;;;4.18;2.55;;;;;;;20.10;49.70;98112.50;4991981;28;20035;-61
2021/10/15 09:28:10;;;;;;;6.03;2.78;;;;;;;18.47;49.22;98103.47;4993690;28;20108;-61
2021/10/15 09:30:40;;;;;;;5.25;2.40;;;;;;;19.49;50.26;98102.19;4991401;28;20035;-62
2021/10/15 09:33:07;;;;;;;4.38;2.67;;;;;;;20.36;48.71;98099.84;4992775;28;20041;-63
2021/10/15 09:35:33;;;;;;;3.63;2.55;;;;;;;20.91;47.69;98099.91;4993716;28;20030;-62
2021/10/15 09:38:07;;;;;;;5.05;2.83;;;;;;;20.48;49.02;98100.69;4992466;28;20023;-62
2021/10/15 09:40:40;;;;;;;4.40;2.67;;;;;;;19.49;48.64;98107.47;4991697;28;20482;-62
2021/10/15 09:43:09;;;;;;;5.13;2.72;;;;;;;19.46;51.09;98105.06;4992201;28;20084;-63
2021/10/15 09:45:40;;;;;;;5.40;3.10;;;;;;;18.56;51.85;98115.19;4992423;28;20097;-61
2021/10/15 09:48:21;;;;;;;5.32;3.00;;;;;;;18.01;53.84;98106.72;4991162;28;20034;-61
2021/10/15 09:50:47;;;;;;;5.78;2.97;;;;;;;19.43;49.44;98100.84;4991499;28;20070;-62
2021/10/15 09:53:13;;;;;;;7.13;3.05;;;;;;;18.46;52.02;98109.72;4992035;28;20023;-62
2021/10/15 09:55:41;;;;;;;5.63;2.90;;;;;;;18.17;54.72;98115.28;4990236;28;20058;-63
2021/10/15 09:58:13;;;;;;;5.32;3.15;;;;;;;18.42;51.70;98113.56;4992494;28;20034;-62
2021/10/15 10:00:39;;;;;;;7.13;3.33;;;;;;;20.13;48.35;98103.50;4991217;28;20043;-61
2021/10/15 10:03:05;;;;;;;6.88;3.60;;;;;;;19.79;48.19;98101.66;4990649;28;20083;-60
2021/10/15 10:05:31;;;;;;;5.50;3.38;;;;;;;19.73;49.01;98107.44;4989750;28;20034;-62
2021/10/15 10:07:57;;;;;;;7.13;3.40;;;;;;;20.86;45.94;98095.94;4990332;28;20182;-61
2021/10/15 10:10:28;;;;;;;5.50;3.70;;;;;;;21.97;44.49;98086.72;4992013;28;20033;-63
2021/10/15 10:12:54;;;;;;;7.63;3.50;;;;;;;23.31;42.42;98096.13;4990994;28;20582;-62
2021/10/15 10:15:23;;;;;;;6.85;3.53;;;;;;;20.68;46.53;98096.47;4990568;28;20124;-62
2021/10/15 10:17:58;;;;;;;6.18;3.70;;;;;;;20.88;44.70;98094.88;4999349;28;20049;-61
2021/10/15 10:20:32;;;;;;;7.60;3.60;;;;;;;19.58;49.98;98090.91;4991880;28;20034;-61
2021/10/15 10:23:01;;;;;;;5.88;3.70;;;;;;;19.01;52.27;98097.81;4990503;28;20030;-62
2021/10/15 10:25:27;;;;;;;7.40;3.40;;;;;;;19.13;51.44;98097.84;4994213;28;20626;-61
2021/10/15 10:27:56;;;;;;;7.55;3.88;;;;;;;17.71;53.84;98092.03;4993677;28;20080;-60
2021/10/15 10:30:37;;;;;;;6.78;4.10;;;;;;;18.21;53.08;98095.63;4992126;28;20041;-61
2021/10/15 10:33:03;;;;;;;8.35;3.72;;;;;;;18.53;52.65;98095.13;4989711;28;20577;-63
2021/10/15 10:35:29;;;;;;;6.78;4.28;;;;;;;17.89;54.29;98080.25;4992320;28;20048;-62
2021/10/15 10:38:20;;;;;;;5.70;3.90;;;;;;;18.02;53.52;98085.53;4992073;28;20034;-60
2021/10/15 10:41:01;;;;;;;8.02;4.53;;;;;;;17.80;53.37;98085.31;4990525;28;20042;-60
2021/10/15 10:43:28;;;;;;;8.32;4.32;;;;;;;17.93;54.67;98083.53;4992092;28;20026;-60
2021/10/15 10:46:08;;;;;;;6.55;3.90;;;;;;;17.52;55.26;98082.75;4990985;28;20033;-61
2021/10/15 10:48:54;;;;;;;7.53;4.18;;;;;;;17.24;54.00;98088.19;4989330;28;20065;-60
2021/10/15 10:51:29;;;;;;;9.68;4.38;;;;;;;17.40;54.49;98088.84;4988745;28;20073;-62
2021/10/15 10:54:07;;;;;;;6.22;4.18;;;;;;;17.38;53.93;98080.22;4990693;28;20026;-62
2021/10/15 10:56:38;;;;;;;6.57;4.45;;;;;;;17.50;54.22;98079.38;4991429;28;20042;-63
2021/10/15 10:59:19;;;;;;;6.90;4.20;;;;;;;17.46;54.12;98070.00;4990079;28;20022;-64
2021/10/15 11:01:47;;;;;;;7.68;4.20;;;;;;;17.58;53.89;98059.56;4988622;28;20821;-61
2021/10/15 11:04:25;;;;;;;7.32;4.20;;;;;;;17.70;54.38;98066.63;4989089;28;20655;-60
2021/10/15 11:07:03;;;;;;;5.80;4.13;;;;;;;17.37;56.18;98053.94;4988309;28;20069;-62
2021/10/15 11:09:39;;;;;;;9.05;4.13;;;;;;;17.72;53.31;98056.81;4988691;28;20065;-63
2021/10/15 11:12:05;;;;;;;9.32;4.47;;;;;;;18.92;50.63;98042.16;4988894;28;20060;-62
2021/10/15 11:14:56;;;;;;;6.70;3.90;;;;;;;18.61;51.44;98044.38;4992103;28;20053;-61
2021/10/15 11:17:31;;;;;;;6.43;4.00;;;;;;;19.26;50.41;98041.31;4988851;28;20038;-61
2021/10/15 11:20:06;;;;;;;7.93;3.83;;;;;;;19.40;50.28;98042.03;4992499;28;20023;-61
2021/10/15 11:22:32;;;;;;;6.32;3.70;;;;;;;19.21;51.51;98042.63;4987389;28;20034;-63
2021/10/15 11:24:57;;;;;;;7.40;3.53;;;;;;;19.07;51.92;98036.53;4989524;28;20030;-61
2021/10/15 11:27:23;;;;;;;6.13;3.22;;;;;;;18.99;52.12;98036.28;4989465;28;20038;-62
2021/10/15 11:29:57;;;;;;;4.90;2.95;;;;;;;18.97;52.06;98030.28;4991192;28;20699;-61
2021/10/15 11:32:43;;;;;;;6.15;3.10;;;;;;;18.41;52.29;98033.47;4992536;28;20076;-63
2021/10/15 11:35:11;;;;;;;5.43;3.00;;;;;;;18.33;54.84;98035.00;4993454;28;20030;-60
2021/10/15 11:37:41;;;;;;;5.90;3.22;;;;;;;18.14;53.08;98036.31;4994423;28;20270;-62
2021/10/15 11:40:19;;;;;;;6.85;3.35;;;;;;;18.32;52.65;98031.47;4993546;28;20044;-61
2021/10/15 11:42:45;;;;;;;7.38;3.40;;;;;;;17.97;53.23;98028.75;4992393;28;20038;-63
2021/10/15 11:45:20;;;;;;;5.55;3.20;;;;;;;17.59;54.43;98019.03;4994790;28;20038;-62